Decoded Metar for SOCA (CAYENNE in FRENCH GUYANA) (IATA:CAY) | Meteo·Mobile Aviation Weather
aviador You're here:

SOCA Decoded Metar

CAYENNE in FRENCH GUYANA
Report Time2018-08-19 04:00:00
UTC Time2018-08-19 04:29:46
Flight Rules vfr VFR
WindCalm
Visibility9999 m
Phenomena:N/A
Clouds:N/A
CeilingNone
Temp23°C (ISA +8)
Dew Point23°C (100% RH)
QNH1015 hPa
Density Alt1,270 ft
Elevation30 ft
Report Wrong Elevation
Raw Report
SOCA 190400Z AUTO 00000KT 9999 ///TCU 23/23 Q1015 TEMPO 3000
SHRA=

Extra information for SOCA:More info

Metar Taf Metar & Taf Last 4 Metars F.Rules Stats Wind Profile Meteogram Temp Stats Airport Information Weather charts Add Link Nearby VenuesMetar ALERT Operation Metar Decoded Social comments